Time;durP1;ratioP1;P1;durP2;ratioP2;P2;SDS_P1;SDS_P2;PMS_P1;PMS_P2;Temp;Humidity;BMP_temperature;BMP_pressure;BME280_temperature;BME280_humidity;BME280_pressure;Samples;Min_cycle;Max_cycle;Signal;HPM_P1;HPM_P2
2022/07/07 00:02:06;;;;;;;1.90;1.20;;;26.20;38.40;;;;;;6112681;23;20448;-80
2022/07/07 00:04:49;;;;;;;2.30;1.30;;;26.20;38.40;;;;;;6045290;23;20429;-80
2022/07/07 00:07:30;;;;;;;1.63;1.23;;;26.20;38.40;;;;;;6061019;23;20389;-79
2022/07/07 00:10:47;;;;;;;1.57;1.20;;;26.20;38.40;;;;;;6112163;23;20392;-80
2022/07/07 00:13:32;;;;;;;;;;;;;;;;;;;;;
2022/07/07 00:23:06;;;;;;;1.30;1.20;;;26.20;38.30;;;;;;6049058;23;20876;-80
2022/07/07 00:26:16;;;;;;;;;;;;;;;;;;;;;
2022/07/07 00:29:10;;;;;;;2.47;2.03;;;26.20;38.40;;;;;;6049071;23;20414;-80
2022/07/07 00:31:57;;;;;;;2.37;1.63;;;26.20;38.40;;;;;;6025098;23;20464;-79
2022/07/07 00:35:01;;;;;;;2.30;1.07;;;26.20;38.40;;;;;;6024714;23;20891;-79
2022/07/07 00:43:52;;;;;;;1.70;1.20;;;26.20;38.50;;;;;;6049577;23;20483;-79
2022/07/07 00:46:54;;;;;;;1.30;0.97;;;26.20;38.50;;;;;;6023479;23;20411;-79
2022/07/07 00:49:45;;;;;;;2.10;1.43;;;26.20;38.60;;;;;;6091951;23;20415;-79
2022/07/07 00:52:23;;;;;;;1.93;1.30;;;26.20;38.60;;;;;;6137447;23;20377;-79
2022/07/07 00:55:31;;;;;;;;;;;;;;;;;;;;;
2022/07/07 00:58:28;;;;;;;1.47;1.10;;;26.20;38.80;;;;;;6138266;23;20400;-79
2022/07/07 01:01:23;;;;;;;1.60;1.23;;;26.20;38.70;;;;;;6138658;23;20353;-79
2022/07/07 01:04:24;;;;;;;;;;;;;;;;;;;;;
2022/07/07 01:07:15;;;;;;;;;;;;;;;;;;;;;
2022/07/07 01:10:01;;;;;;;1.37;1.27;;;26.20;38.80;;;;;;6137915;23;20395;-79
2022/07/07 01:12:40;;;;;;;1.50;1.40;;;26.20;38.90;;;;;;6111361;23;20389;-79
2022/07/07 01:15:20;;;;;;;1.80;1.57;;;26.20;38.90;;;;;;6138238;23;20358;-79
2022/07/07 01:17:51;;;;;;;1.60;1.00;;;26.20;38.90;;;;;;6112349;23;20381;-80
2022/07/07 01:20:25;;;;;;;1.20;1.10;;;26.20;38.90;;;;;;6138477;23;20397;-80
2022/07/07 01:23:08;;;;;;;2.27;1.23;;;26.20;38.90;;;;;;6139632;23;20421;-79
2022/07/07 01:25:53;;;;;;;1.30;1.20;;;26.20;38.90;;;;;;6114982;23;20424;-79
2022/07/07 01:28:41;;;;;;;1.47;1.37;;;26.20;38.90;;;;;;6114711;23;20384;-79
2022/07/07 01:31:32;;;;;;;;;;;;;;;;;;;;;
2022/07/07 01:34:10;;;;;;;1.83;1.73;;;26.20;39.00;;;;;;6140823;23;20392;-79
2022/07/07 01:36:49;;;;;;;1.83;1.37;;;26.20;39.00;;;;;;6114462;23;20381;-79
2022/07/07 01:40:01;;;;;;;1.57;1.20;;;26.20;39.00;;;;;;6139988;23;20353;-79
2022/07/07 01:42:59;;;;;;;1.43;1.30;;;26.20;39.10;;;;;;6141285;23;20419;-79
2022/07/07 01:49:23;;;;;;;1.93;1.03;;;26.20;39.10;;;;;;6050973;23;20395;-79
2022/07/07 01:52:31;;;;;;;1.70;1.27;;;26.10;39.10;;;;;;6028007;23;20387;-79
2022/07/07 01:55:36;;;;;;;1.60;1.40;;;26.10;39.10;;;;;;6050530;23;20455;-79
2022/07/07 01:58:16;;;;;;;2.90;1.10;;;26.10;39.10;;;;;;6025530;23;20384;-79
2022/07/07 02:01:05;;;;;;;;;;;;;;;;;;;;;
2022/07/07 02:04:00;;;;;;;1.50;1.10;;;26.20;39.10;;;;;;6050737;23;20462;-79
2022/07/07 02:11:31;;;;;;;;;;;;;;;;;;;;;
2022/07/07 02:13:26;;;;;;;1.30;1.20;;;26.10;39.10;;;;;;6012615;23;20384;-79
2022/07/07 02:16:10;;;;;;;1.63;1.37;;;26.10;39.20;;;;;;6049280;23;20383;-79
2022/07/07 02:19:26;;;;;;;1.63;1.30;;;26.10;39.20;;;;;;6049106;23;20388;-79
2022/07/07 02:22:14;;;;;;;2.43;1.37;;;26.10;39.20;;;;;;6075923;23;20380;-79
2022/07/07 02:25:12;;;;;;;2.40;1.43;;;26.10;39.10;;;;;;6112059;23;20381;-79
2022/07/07 02:27:49;;;;;;;2.03;1.27;;;26.10;39.20;;;;;;6139295;23;20413;-79
2022/07/07 02:30:41;;;;;;;1.80;1.27;;;26.10;39.20;;;;;;6138571;23;20372;-79
2022/07/07 02:36:45;;;;;;;1.97;1.37;;;26.10;39.20;;;;;;6134199;23;20385;-79
2022/07/07 02:39:29;;;;;;;1.13;1.03;;;26.10;39.20;;;;;;6138965;23;20384;-79
2022/07/07 02:42:44;;;;;;;1.70;1.40;;;26.10;39.20;;;;;;6138483;23;20511;-79
2022/07/07 02:45:36;;;;;;;1.60;1.40;;;26.10;39.20;;;;;;6113856;23;20409;-80
2022/07/07 02:58:30;;;;;;;1.30;1.20;;;26.00;39.20;;;;;;6050223;23;20371;-79
2022/07/07 03:01:01;;;;;;;1.60;1.47;;;26.00;39.20;;;;;;6051505;23;20376;-82
2022/07/07 03:03:48;;;;;;;1.93;1.20;;;26.00;39.30;;;;;;6051328;23;20427;-82
2022/07/07 03:06:32;;;;;;;2.57;1.50;;;26.10;39.50;;;;;;6051082;23;20874;-82
2022/07/07 03:09:16;;;;;;;1.73;1.63;;;26.00;39.30;;;;;;6027771;23;20436;-82
2022/07/07 03:11:58;;;;;;;1.40;1.30;;;26.10;40.00;;;;;;6029875;23;20402;-81
2022/07/07 03:14:35;;;;;;;1.50;1.40;;;26.00;39.40;;;;;;6051802;23;20989;-82
2022/07/07 03:17:31;;;;;;;1.30;1.17;;;26.00;39.40;;;;;;6049920;23;20383;-82
2022/07/07 03:20:53;;;;;;;1.47;1.33;;;26.10;39.40;;;;;;6050841;23;20399;-81
2022/07/07 03:26:59;;;;;;;;;;;;;;;;;;;;;
2022/07/07 03:29:51;;;;;;;3.70;2.57;;;26.10;39.40;;;;;;6139359;23;20392;-82
2022/07/07 03:39:20;;;;;;;5.17;2.67;;;26.10;39.40;;;;;;6138223;23;20349;-82
2022/07/07 03:45:01;;;;;;;1.50;1.40;;;26.00;39.40;;;;;;6136826;23;20380;-82
2022/07/07 03:48:08;;;;;;;1.80;1.67;;;26.00;39.40;;;;;;6112140;23;20448;-82
2022/07/07 03:50:38;;;;;;;4.73;1.73;;;26.00;39.40;;;;;;6113760;23;20388;-82
2022/07/07 03:53:33;;;;;;;2.67;1.80;;;26.00;39.40;;;;;;6139571;23;20943;-82
2022/07/07 03:56:35;;;;;;;3.90;1.57;;;26.00;39.40;;;;;;6117289;23;20496;-82
2022/07/07 03:59:28;;;;;;;2.23;1.43;;;26.00;39.40;;;;;;6108341;23;20413;-82
2022/07/07 04:02:04;;;;;;;3.00;1.60;;;26.00;39.40;;;;;;6106100;23;20408;-82
2022/07/07 04:05:19;;;;;;;2.10;1.57;;;26.00;39.40;;;;;;6109548;23;20389;-82
2022/07/07 04:08:20;;;;;;;2.27;1.47;;;26.00;39.50;;;;;;6109725;23;20402;-82
2022/07/07 04:11:00;;;;;;;3.10;1.63;;;26.00;39.60;;;;;;6109842;23;20358;-82
2022/07/07 04:13:36;;;;;;;1.80;1.50;;;25.90;39.60;;;;;;6109872;23;20369;-82
2022/07/07 04:16:21;;;;;;;1.40;1.30;;;25.90;39.60;;;;;;6108835;23;20382;-82
2022/07/07 04:19:03;;;;;;;2.33;1.37;;;26.00;39.80;;;;;;6108532;23;20417;-82
2022/07/07 04:22:09;;;;;;;1.97;1.60;;;25.90;39.80;;;;;;6107744;23;20884;-82
2022/07/07 04:31:04;;;;;;;2.60;1.80;;;25.90;40.00;;;;;;6110162;23;20378;-82
2022/07/07 04:37:47;;;;;;;1.77;1.50;;;25.90;40.10;;;;;;6102179;23;20393;-81
2022/07/07 04:40:45;;;;;;;;;;;;;;;;;;;;;
2022/07/07 04:47:09;;;;;;;2.10;1.90;;;25.80;40.50;;;;;;6021671;23;20392;-81
2022/07/07 04:57:58;;;;;;;3.63;1.60;;;25.90;40.60;;;;;;6020895;23;20427;-82
2022/07/07 05:00:26;;;;;;;2.10;1.63;;;25.80;40.70;;;;;;5968882;24;20442;-81
2022/07/07 05:03:20;;;;;;;2.03;1.50;;;25.80;40.80;;;;;;5965711;24;20928;-81
2022/07/07 05:06:35;;;;;;;2.37;1.70;;;25.90;40.80;;;;;;6004943;23;20381;-81
2022/07/07 05:17:38;;;;;;;;;;;;;;;;;;;;;
2022/07/07 05:54:58;;;;;;;;;;;;;;;;;;;;;
2022/07/07 06:01:59;;;;;;;;;;;;;;;;;;;;;
2022/07/07 06:21:18;;;;;;;1.83;1.70;;;25.90;41.10;;;;;;6023250;23;20344;-82
2022/07/07 06:41:42;;;;;;;2.63;1.90;;;25.90;41.20;;;;;;5965913;24;20398;-79
2022/07/07 06:51:03;;;;;;;;;;;;;;;;;;;;;
2022/07/07 07:07:31;;;;;;;;;;;;;;;;;;;;;
2022/07/07 07:14:34;;;;;;;;;;;;;;;;;;;;;
2022/07/07 07:55:42;;;;;;;;;;;;;;;;;;;;;
2022/07/07 08:05:40;;;;;;;2.50;2.20;;;25.90;42.10;;;;;;5671359;25;20395;-81
2022/07/07 08:15:32;;;;;;;;;;;;;;;;;;;;;
2022/07/07 08:33:04;;;;;;;;;;;;;;;;;;;;;
2022/07/07 10:21:59;;;;;;;2.43;2.23;;;25.90;45.30;;;;;;5817723;24;20497;-82
2022/07/07 11:16:15;;;;;;;4.00;2.87;;;25.90;45.90;;;;;;6109122;23;20414;-79
2022/07/07 11:18:45;;;;;;;4.60;2.90;;;25.90;46.30;;;;;;6108543;23;20370;-79
2022/07/07 11:24:20;;;;;;;4.20;3.03;;;26.00;46.40;;;;;;6139071;23;20726;-78
2022/07/07 11:27:26;;;;;;;4.30;2.90;;;26.00;46.50;;;;;;6112680;23;20448;-78
2022/07/07 11:30:30;;;;;;;3.23;2.93;;;26.00;46.80;;;;;;6080242;23;20566;-78
2022/07/07 11:33:12;;;;;;;5.80;3.00;;;26.00;46.70;;;;;;6112580;23;20460;-79
2022/07/07 11:45:50;;;;;;;4.53;2.70;;;26.00;46.60;;;;;;6024072;23;20485;-81
2022/07/07 11:55:18;;;;;;;;;;;;;;;;;;;;;
2022/07/07 11:58:05;;;;;;;3.17;2.40;;;26.00;46.30;;;;;;5995301;24;20401;-81
2022/07/07 12:01:14;;;;;;;4.63;2.60;;;26.10;46.40;;;;;;5971640;24;20913;-81
2022/07/07 12:03:53;;;;;;;2.60;2.20;;;26.00;46.30;;;;;;5972150;24;20440;-82
2022/07/07 12:06:31;;;;;;;3.73;2.43;;;26.00;46.20;;;;;;5972002;24;20410;-81
2022/07/07 12:09:13;;;;;;;4.13;2.40;;;26.10;46.40;;;;;;5993571;23;20458;-81
2022/07/07 12:12:10;;;;;;;2.63;2.43;;;26.10;46.60;;;;;;5968149;23;20805;-78
2022/07/07 12:14:59;;;;;;;3.40;2.43;;;26.10;46.60;;;;;;6025165;23;20457;-78
2022/07/07 12:17:40;;;;;;;3.30;3.00;;;26.10;46.70;;;;;;6023318;23;20376;-78
2022/07/07 12:20:27;;;;;;;2.60;2.40;;;26.10;46.80;;;;;;6027657;23;20400;-79
2022/07/07 12:23:02;;;;;;;2.77;2.47;;;26.10;47.30;;;;;;6025728;23;20543;-78
2022/07/07 12:25:38;;;;;;;2.80;2.33;;;26.10;47.20;;;;;;6025380;23;20391;-78
2022/07/07 12:28:10;;;;;;;3.13;2.70;;;26.10;47.40;;;;;;6085653;23;20883;-78
2022/07/07 12:31:00;;;;;;;2.70;2.50;;;26.10;47.30;;;;;;6113116;23;20389;-78
2022/07/07 12:33:52;;;;;;;3.40;2.30;;;26.10;47.40;;;;;;6138768;23;20380;-78
2022/07/07 12:39:43;;;;;;;2.50;2.30;;;26.10;47.50;;;;;;6128426;23;20376;-78
2022/07/07 12:42:38;;;;;;;2.17;1.97;;;26.10;47.40;;;;;;6114501;23;20380;-78
2022/07/07 12:45:43;;;;;;;4.30;2.30;;;26.10;47.70;;;;;;6114076;23;20404;-79
2022/07/07 12:49:06;;;;;;;3.20;2.10;;;26.10;47.30;;;;;;6141398;23;20357;-81
2022/07/07 12:52:42;;;;;;;2.80;2.33;;;26.10;47.40;;;;;;6023532;23;20447;-80
2022/07/07 12:55:35;;;;;;;2.40;2.20;;;26.10;47.80;;;;;;6009295;23;20387;-80
2022/07/07 12:58:31;;;;;;;2.50;2.30;;;26.10;47.60;;;;;;5999726;23;20475;-80
2022/07/07 13:01:23;;;;;;;3.40;2.13;;;26.10;47.80;;;;;;6022291;23;20391;-80
2022/07/07 13:04:01;;;;;;;4.10;2.70;;;26.10;47.90;;;;;;5990267;23;20452;-79
2022/07/07 13:06:40;;;;;;;3.63;2.40;;;26.10;47.90;;;;;;5996347;23;20447;-78
2022/07/07 13:09:11;;;;;;;2.90;2.40;;;26.10;48.00;;;;;;6021094;23;20391;-78
2022/07/07 13:11:43;;;;;;;2.27;2.10;;;26.20;48.20;;;;;;5997167;23;20381;-77
2022/07/07 13:14:29;;;;;;;3.20;2.43;;;26.20;47.60;;;;;;6020929;23;20384;-78
2022/07/07 13:16:55;;;;;;;3.33;2.23;;;26.20;47.40;;;;;;6020545;23;20428;-78
2022/07/07 13:23:04;;;;;;;6.90;2.33;;;26.20;47.50;;;;;;6022698;23;20439;-78
2022/07/07 13:26:12;;;;;;;3.63;1.57;;;26.20;47.50;;;;;;6022464;23;20419;-78
2022/07/07 13:29:07;;;;;;;3.77;2.30;;;26.20;47.20;;;;;;6075105;23;20380;-78
2022/07/07 13:31:50;;;;;;;2.00;1.80;;;26.20;47.40;;;;;;6117503;23;20377;-80
2022/07/07 13:45:23;;;;;;;4.07;2.00;;;26.20;47.30;;;;;;6025013;23;20393;-81
2022/07/07 14:20:15;;;;;;;2.97;1.90;;;26.20;47.80;;;;;;6022613;23;20413;-80
2022/07/07 14:54:07;;;;;;;3.67;1.40;;;26.30;48.30;;;;;;5829767;24;20374;-81
2022/07/07 15:01:00;;;;;;;;;;;;;;;;;;;;;
2022/07/07 15:07:16;;;;;;;2.67;1.57;;;26.30;48.50;;;;;;5824618;24;20791;-81
2022/07/07 15:21:22;;;;;;;;;;;;;;;;;;;;;
2022/07/07 15:48:22;;;;;;;2.70;1.20;;;26.40;48.30;;;;;;5701607;24;20406;-80
2022/07/07 16:21:58;;;;;;;1.40;1.10;;;26.50;47.70;;;;;;5858186;24;20378;-81
2022/07/07 18:52:17;;;;;;;;;;;;;;;;;;;;;
2022/07/07 19:46:43;;;;;;;1.10;0.90;;;26.20;47.70;;;;;;5856391;24;20401;-80
2022/07/07 19:49:26;;;;;;;1.57;0.90;;;26.20;47.90;;;;;;5857393;24;20409;-80
2022/07/07 19:51:53;;;;;;;1.00;0.80;;;26.20;47.90;;;;;;5875177;24;20396;-80
2022/07/07 19:57:16;;;;;;;1.70;1.03;;;26.30;47.70;;;;;;5914970;24;20371;-81
2022/07/07 19:59:51;;;;;;;1.10;0.90;;;26.30;47.70;;;;;;5992808;23;20380;-82
2022/07/07 20:02:17;;;;;;;1.00;0.70;;;26.30;47.80;;;;;;6002526;23;20396;-79
2022/07/07 20:04:43;;;;;;;1.60;1.20;;;26.30;47.90;;;;;;6001092;23;20413;-79
2022/07/07 20:07:08;;;;;;;1.00;0.70;;;26.30;47.80;;;;;;6001633;23;20156;-79
2022/07/07 20:09:34;;;;;;;1.30;0.77;;;26.30;47.90;;;;;;6001404;23;20638;-79
2022/07/07 20:12:33;;;;;;;0.90;0.80;;;26.30;48.00;;;;;;6004425;23;20162;-82
2022/07/07 20:14:59;;;;;;;0.90;0.80;;;26.30;47.90;;;;;;6057270;23;20160;-82
2022/07/07 20:17:26;;;;;;;1.10;0.77;;;26.30;48.00;;;;;;6145851;23;20863;-82
2022/07/07 20:19:54;;;;;;;1.60;0.90;;;26.30;48.10;;;;;;6121628;23;20240;-84
2022/07/07 20:22:20;;;;;;;1.10;0.80;;;26.30;48.00;;;;;;6073784;23;20377;-83
2022/07/07 20:24:58;;;;;;;1.13;0.80;;;26.30;48.10;;;;;;6145998;23;20409;-83
2022/07/07 20:27:29;;;;;;;0.93;0.80;;;26.30;48.00;;;;;;6121075;23;20385;-84
2022/07/07 20:30:25;;;;;;;2.67;1.10;;;26.30;48.00;;;;;;6120078;23;20398;-82
2022/07/07 20:32:52;;;;;;;1.57;0.70;;;26.30;48.10;;;;;;6141067;23;20409;-79
2022/07/07 20:35:18;;;;;;;0.90;0.70;;;26.30;48.10;;;;;;6139558;23;20460;-80
2022/07/07 20:37:44;;;;;;;1.20;0.90;;;26.20;47.90;;;;;;6140257;23;20398;-81
2022/07/07 20:40:10;;;;;;;0.90;0.80;;;26.30;47.90;;;;;;6114883;23;20161;-81
2022/07/07 20:42:46;;;;;;;0.90;0.70;;;26.20;47.90;;;;;;6114760;23;20184;-81
2022/07/07 20:51:50;;;;;;;0.80;0.60;;;26.20;47.80;;;;;;6021710;23;20404;-81
2022/07/07 20:54:16;;;;;;;0.90;0.70;;;26.20;47.90;;;;;;6022096;23;20372;-80
2022/07/07 20:56:45;;;;;;;1.10;0.90;;;26.10;48.00;;;;;;6022228;23;20152;-81
2022/07/07 20:59:13;;;;;;;1.10;0.80;;;26.10;48.10;;;;;;5998412;23;20381;-81
2022/07/07 21:05:13;;;;;;;1.23;0.70;;;26.10;48.80;;;;;;6021957;23;20422;-80
2022/07/07 21:07:42;;;;;;;1.00;0.77;;;26.00;48.30;;;;;;5991713;23;20384;-80
2022/07/07 21:10:11;;;;;;;1.00;0.80;;;26.00;48.40;;;;;;5998753;23;20449;-81
2022/07/07 21:12:37;;;;;;;0.90;0.70;;;26.00;48.40;;;;;;6022590;23;20380;-80
2022/07/07 21:15:06;;;;;;;1.00;0.70;;;26.00;48.40;;;;;;6021282;23;20409;-80
2022/07/07 21:17:35;;;;;;;1.07;0.93;;;25.90;48.40;;;;;;6025786;23;20416;-80
2022/07/07 21:20:02;;;;;;;1.03;0.80;;;25.90;48.40;;;;;;6113836;23;20476;-80
2022/07/07 21:22:34;;;;;;;1.00;0.80;;;25.90;48.50;;;;;;6113711;23;20392;-80
2022/07/07 21:25:00;;;;;;;2.13;0.90;;;25.90;48.40;;;;;;6113590;23;20380;-80
2022/07/07 21:27:26;;;;;;;1.43;0.90;;;25.90;48.50;;;;;;6139119;23;20420;-80
2022/07/07 21:29:54;;;;;;;1.20;0.90;;;25.90;48.50;;;;;;6111948;23;20767;-81
2022/07/07 21:32:19;;;;;;;1.10;0.70;;;25.90;48.30;;;;;;6137133;23;20141;-81
2022/07/07 21:34:45;;;;;;;2.30;0.90;;;25.90;48.40;;;;;;6137861;23;20412;-81
2022/07/07 21:37:11;;;;;;;2.03;1.00;;;25.90;48.30;;;;;;6111968;23;20157;-81
2022/07/07 21:39:41;;;;;;;2.80;1.10;;;25.80;48.30;;;;;;6114468;23;20160;-81
2022/07/07 21:42:10;;;;;;;1.10;0.80;;;25.80;48.30;;;;;;6114699;23;20181;-81
2022/07/07 21:44:46;;;;;;;1.40;0.90;;;25.80;48.40;;;;;;6114482;23;20432;-81
2022/07/07 21:47:12;;;;;;;1.40;1.00;;;25.80;48.30;;;;;;6115081;23;20471;-81
2022/07/07 21:49:38;;;;;;;2.40;1.10;;;25.80;48.30;;;;;;6115426;23;20836;-81
2022/07/07 21:52:06;;;;;;;2.80;1.00;;;25.80;48.10;;;;;;6140731;23;20392;-80
2022/07/07 21:54:36;;;;;;;1.80;0.83;;;25.80;48.10;;;;;;6140842;23;20376;-81
2022/07/07 21:57:02;;;;;;;2.90;1.30;;;25.80;48.00;;;;;;6116646;23;20412;-83
2022/07/07 21:59:28;;;;;;;1.90;1.13;;;25.80;47.90;;;;;;6117648;23;20392;-83
2022/07/07 22:08:01;;;;;;;2.27;0.93;;;25.70;47.60;;;;;;6124576;23;20481;-83
2022/07/07 22:10:27;;;;;;;2.20;1.13;;;25.60;47.50;;;;;;6143725;23;20377;-83
2022/07/07 22:12:53;;;;;;;1.83;1.40;;;25.60;47.40;;;;;;6118342;23;20385;-83
2022/07/07 22:15:19;;;;;;;2.20;1.20;;;25.60;47.30;;;;;;6146079;23;20373;-83
2022/07/07 22:17:45;;;;;;;3.33;1.20;;;25.60;47.20;;;;;;6120392;23;20412;-83
2022/07/07 22:20:12;;;;;;;2.33;1.17;;;25.60;47.20;;;;;;6120163;23;20164;-83
2022/07/07 22:22:39;;;;;;;2.70;1.73;;;25.60;47.10;;;;;;6119432;23;20610;-83
2022/07/07 22:25:05;;;;;;;2.00;1.00;;;25.60;47.10;;;;;;6119589;23;20377;-83
2022/07/07 22:27:32;;;;;;;2.03;1.10;;;25.50;46.90;;;;;;6145254;23;20384;-83
2022/07/07 22:29:58;;;;;;;1.30;1.00;;;25.60;47.00;;;;;;6145761;23;20377;-83
2022/07/07 22:32:23;;;;;;;1.67;1.10;;;25.50;46.80;;;;;;6144328;23;20380;-83
2022/07/07 22:34:52;;;;;;;1.60;1.50;;;25.50;46.70;;;;;;6144598;23;20216;-82
2022/07/07 22:37:18;;;;;;;1.70;1.30;;;25.50;46.70;;;;;;6144373;23;20153;-83
2022/07/07 22:39:44;;;;;;;2.67;1.47;;;25.50;46.60;;;;;;6143749;23;20381;-82
2022/07/07 22:42:10;;;;;;;3.90;1.60;;;25.50;46.50;;;;;;6119987;23;20381;-82
2022/07/07 22:44:38;;;;;;;4.13;1.27;;;25.50;46.40;;;;;;6119386;23;20208;-82
2022/07/07 22:47:04;;;;;;;2.47;1.37;;;25.50;46.40;;;;;;6144923;23;20173;-83
2022/07/07 22:49:30;;;;;;;2.70;1.60;;;25.40;46.20;;;;;;6144384;23;20385;-83
2022/07/07 22:51:56;;;;;;;2.90;1.43;;;25.40;46.10;;;;;;6114291;23;20401;-83
2022/07/07 22:54:22;;;;;;;2.60;1.37;;;25.40;46.20;;;;;;6114522;23;20150;-83
2022/07/07 22:56:47;;;;;;;4.00;2.53;;;25.40;46.10;;;;;;6114944;23;20422;-83
2022/07/07 22:59:13;;;;;;;2.87;1.50;;;25.40;46.10;;;;;;6114655;23;20165;-83
2022/07/07 23:01:41;;;;;;;3.00;1.33;;;25.30;46.10;;;;;;6138713;23;20719;-82
2022/07/07 23:07:31;;;;;;;2.23;1.30;;;25.40;46.00;;;;;;6115860;23;20894;-82
2022/07/07 23:09:57;;;;;;;4.67;1.47;;;25.30;45.90;;;;;;6114909;23;20405;-82
2022/07/07 23:12:22;;;;;;;2.83;1.60;;;25.30;45.90;;;;;;6115620;23;20382;-83
2022/07/07 23:14:48;;;;;;;3.00;1.63;;;25.30;45.90;;;;;;6115068;23;20157;-82
2022/07/07 23:17:21;;;;;;;3.10;1.40;;;25.30;45.90;;;;;;6115597;23;20146;-82
2022/07/07 23:19:55;;;;;;;1.77;1.00;;;25.20;45.80;;;;;;6089968;23;20457;-82
2022/07/07 23:22:26;;;;;;;1.70;1.30;;;25.20;45.70;;;;;;6116123;23;20359;-81
2022/07/07 23:24:54;;;;;;;3.37;1.20;;;25.20;45.70;;;;;;6114925;23;20481;-82
2022/07/07 23:27:23;;;;;;;1.87;1.20;;;25.20;45.70;;;;;;6115802;23;20382;-83
2022/07/07 23:29:57;;;;;;;3.50;1.30;;;25.20;45.70;;;;;;6114846;23;20437;-82
2022/07/07 23:32:25;;;;;;;1.53;1.10;;;25.20;45.70;;;;;;6116537;23;20362;-82
2022/07/07 23:34:51;;;;;;;1.90;1.10;;;25.10;45.60;;;;;;6114260;23;20948;-82
2022/07/07 23:37:21;;;;;;;2.30;1.40;;;25.20;45.70;;;;;;6112382;23;20751;-80
2022/07/07 23:39:47;;;;;;;2.10;1.33;;;25.20;45.70;;;;;;6109037;23;20154;-80
2022/07/07 23:42:13;;;;;;;2.23;1.40;;;25.10;45.70;;;;;;6109683;23;20449;-80
2022/07/07 23:44:39;;;;;;;1.90;1.00;;;25.20;45.70;;;;;;6109682;23;20189;-80
2022/07/07 23:47:05;;;;;;;2.00;1.10;;;25.20;45.70;;;;;;6108605;23;20388;-81
2022/07/07 23:49:31;;;;;;;1.50;1.17;;;25.20;45.70;;;;;;6108097;23;20158;-81
2022/07/07 23:52:35;;;;;;;1.80;1.00;;;25.20;45.80;;;;;;6107917;23;20409;-80
2022/07/07 23:55:11;;;;;;;1.30;1.10;;;25.20;45.50;;;;;;6113111;23;20207;-81
